sensor_id;sensor_type;location;lat;lon;timestamp;temperature;humidity
20459;DHT22;10388;52.314;7.938;2023-06-22T00:01:11;17.80;99.90
20459;DHT22;10388;52.314;7.938;2023-06-22T00:03:42;17.70;99.90
20459;DHT22;10388;52.314;7.938;2023-06-22T00:06:13;17.70;99.90
20459;DHT22;10388;52.314;7.938;2023-06-22T00:08:46;17.70;99.90
20459;DHT22;10388;52.314;7.938;2023-06-22T00:11:17;17.70;99.90
20459;DHT22;10388;52.314;7.938;2023-06-22T00:13:48;17.70;99.90
20459;DHT22;10388;52.314;7.938;2023-06-22T00:16:19;17.70;99.90
20459;DHT22;10388;52.314;7.938;2023-06-22T00:18:51;17.60;99.90
20459;DHT22;10388;52.314;7.938;2023-06-22T00:21:21;17.60;99.90
20459;DHT22;10388;52.314;7.938;2023-06-22T00:23:52;17.60;99.90
20459;DHT22;10388;52.314;7.938;2023-06-22T00:26:26;17.60;99.90
20459;DHT22;10388;52.314;7.938;2023-06-22T00:28:57;17.50;99.90
20459;DHT22;10388;52.314;7.938;2023-06-22T03:33:04;15.80;99.90
20459;DHT22;10388;52.314;7.938;2023-06-22T03:35:35;15.80;99.90
20459;DHT22;10388;52.314;7.938;2023-06-22T03:38:05;15.80;99.90
20459;DHT22;10388;52.314;7.938;2023-06-22T03:40:36;15.80;99.90
20459;DHT22;10388;52.314;7.938;2023-06-22T03:43:06;15.80;99.90
20459;DHT22;10388;52.314;7.938;2023-06-22T03:45:37;15.80;99.90
20459;DHT22;10388;52.314;7.938;2023-06-22T03:48:07;15.90;99.90
20459;DHT22;10388;52.314;7.938;2023-06-22T03:50:38;15.90;99.90
20459;DHT22;10388;52.314;7.938;2023-06-22T03:53:09;15.90;99.90
20459;DHT22;10388;52.314;7.938;2023-06-22T03:55:48;15.90;99.90
20459;DHT22;10388;52.314;7.938;2023-06-22T03:58:20;15.90;99.90
20459;DHT22;10388;52.314;7.938;2023-06-22T04:00:52;16.00;99.90
20459;DHT22;10388;52.314;7.938;2023-06-22T04:03:23;16.00;99.90
20459;DHT22;10388;52.314;7.938;2023-06-22T04:05:53;16.00;99.90
20459;DHT22;10388;52.314;7.938;2023-06-22T04:08:24;16.10;99.90
20459;DHT22;10388;52.314;7.938;2023-06-22T04:10:54;16.10;99.90
20459;DHT22;10388;52.314;7.938;2023-06-22T04:13:25;16.10;99.90
20459;DHT22;10388;52.314;7.938;2023-06-22T04:15:55;16.20;99.90
20459;DHT22;10388;52.314;7.938;2023-06-22T04:18:26;16.20;99.90
20459;DHT22;10388;52.314;7.938;2023-06-22T04:20:56;16.30;99.90
20459;DHT22;10388;52.314;7.938;2023-06-22T04:23:27;16.40;99.90
20459;DHT22;10388;52.314;7.938;2023-06-22T04:25:57;16.50;99.90
20459;DHT22;10388;52.314;7.938;2023-06-22T04:28:29;16.60;99.90
20459;DHT22;10388;52.314;7.938;2023-06-22T04:31:03;16.60;99.90
20459;DHT22;10388;52.314;7.938;2023-06-22T04:33:34;16.70;99.90
20459;DHT22;10388;52.314;7.938;2023-06-22T04:36:05;17.00;99.90
20459;DHT22;10388;52.314;7.938;2023-06-22T04:38:35;18.10;99.90
20459;DHT22;10388;52.314;7.938;2023-06-22T04:41:06;19.30;99.90
20459;DHT22;10388;52.314;7.938;2023-06-22T04:43:37;19.70;99.90
20459;DHT22;10388;52.314;7.938;2023-06-22T04:46:07;19.90;99.90
20459;DHT22;10388;52.314;7.938;2023-06-22T04:48:38;20.50;99.90
20459;DHT22;10388;52.314;7.938;2023-06-22T04:51:08;21.40;99.90
20459;DHT22;10388;52.314;7.938;2023-06-22T04:53:40;22.10;99.90
20459;DHT22;10388;52.314;7.938;2023-06-22T04:56:11;21.70;99.90
20459;DHT22;10388;52.314;7.938;2023-06-22T04:58:42;20.30;99.90
20459;DHT22;10388;52.314;7.938;2023-06-22T05:01:12;19.70;99.90
20459;DHT22;10388;52.314;7.938;2023-06-22T05:03:43;19.30;99.90
20459;DHT22;10388;52.314;7.938;2023-06-22T05:06:14;19.00;99.90
20459;DHT22;10388;52.314;7.938;2023-06-22T05:08:44;18.80;99.90
20459;DHT22;10388;52.314;7.938;2023-06-22T05:11:15;18.70;99.90
20459;DHT22;10388;52.314;7.938;2023-06-22T05:13:45;18.50;99.90
20459;DHT22;10388;52.314;7.938;2023-06-22T05:16:16;18.40;99.90
20459;DHT22;10388;52.314;7.938;2023-06-22T05:18:47;18.60;99.90
20459;DHT22;10388;52.314;7.938;2023-06-22T05:21:17;18.60;99.90
20459;DHT22;10388;52.314;7.938;2023-06-22T05:23:49;18.80;99.90
20459;DHT22;10388;52.314;7.938;2023-06-22T05:26:20;18.90;99.90
20459;DHT22;10388;52.314;7.938;2023-06-22T05:28:51;19.00;99.90
20459;DHT22;10388;52.314;7.938;2023-06-22T05:31:22;19.00;99.90
20459;DHT22;10388;52.314;7.938;2023-06-22T05:33:54;19.10;99.90
20459;DHT22;10388;52.314;7.938;2023-06-22T05:36:24;19.30;99.90
20459;DHT22;10388;52.314;7.938;2023-06-22T05:38:56;19.40;99.90
20459;DHT22;10388;52.314;7.938;2023-06-22T05:41:27;19.50;99.90
20459;DHT22;10388;52.314;7.938;2023-06-22T05:43:58;19.50;99.90
20459;DHT22;10388;52.314;7.938;2023-06-22T05:46:28;19.40;99.90
20459;DHT22;10388;52.314;7.938;2023-06-22T05:48:59;19.40;99.90
20459;DHT22;10388;52.314;7.938;2023-06-22T05:51:29;19.50;99.90
20459;DHT22;10388;52.314;7.938;2023-06-22T05:54:00;19.40;99.90
20459;DHT22;10388;52.314;7.938;2023-06-22T05:56:31;19.40;99.90
20459;DHT22;10388;52.314;7.938;2023-06-22T05:59:01;19.50;99.90
20459;DHT22;10388;52.314;7.938;2023-06-22T06:01:32;19.60;99.90
20459;DHT22;10388;52.314;7.938;2023-06-22T06:04:05;19.80;99.90
20459;DHT22;10388;52.314;7.938;2023-06-22T06:06:35;19.80;99.90
20459;DHT22;10388;52.314;7.938;2023-06-22T06:09:07;20.00;99.90
20459;DHT22;10388;52.314;7.938;2023-06-22T06:11:38;20.10;99.90
20459;DHT22;10388;52.314;7.938;2023-06-22T06:14:08;20.30;99.90
20459;DHT22;10388;52.314;7.938;2023-06-22T06:16:39;20.30;99.90
20459;DHT22;10388;52.314;7.938;2023-06-22T06:19:09;20.40;99.90
20459;DHT22;10388;52.314;7.938;2023-06-22T06:21:40;20.50;99.90
20459;DHT22;10388;52.314;7.938;2023-06-22T06:24:10;20.50;99.90
20459;DHT22;10388;52.314;7.938;2023-06-22T06:26:41;20.50;99.90
20459;DHT22;10388;52.314;7.938;2023-06-22T06:29:11;20.60;99.90
20459;DHT22;10388;52.314;7.938;2023-06-22T06:31:42;20.70;99.90
20459;DHT22;10388;52.314;7.938;2023-06-22T06:34:13;20.80;99.90
20459;DHT22;10388;52.314;7.938;2023-06-22T06:36:43;21.10;99.90
20459;DHT22;10388;52.314;7.938;2023-06-22T06:39:14;21.30;99.90
20459;DHT22;10388;52.314;7.938;2023-06-22T06:41:46;21.20;99.90
20459;DHT22;10388;52.314;7.938;2023-06-22T06:44:16;21.40;99.90
20459;DHT22;10388;52.314;7.938;2023-06-22T06:46:47;21.40;99.90
20459;DHT22;10388;52.314;7.938;2023-06-22T06:49:17;21.30;99.90
20459;DHT22;10388;52.314;7.938;2023-06-22T06:51:48;21.40;99.90
20459;DHT22;10388;52.314;7.938;2023-06-22T06:54:18;21.50;99.90
20459;DHT22;10388;52.314;7.938;2023-06-22T06:56:51;21.70;99.90
20459;DHT22;10388;52.314;7.938;2023-06-22T06:59:21;21.70;99.90
20459;DHT22;10388;52.314;7.938;2023-06-22T07:01:52;21.90;99.90
20459;DHT22;10388;52.314;7.938;2023-06-22T07:04:22;21.90;99.90
20459;DHT22;10388;52.314;7.938;2023-06-22T07:06:53;22.00;99.90
20459;DHT22;10388;52.314;7.938;2023-06-22T07:09:23;22.10;99.90
20459;DHT22;10388;52.314;7.938;2023-06-22T07:11:54;22.20;99.90
20459;DHT22;10388;52.314;7.938;2023-06-22T07:14:24;22.30;99.90
20459;DHT22;10388;52.314;7.938;2023-06-22T07:16:55;22.40;99.90
20459;DHT22;10388;52.314;7.938;2023-06-22T07:19:26;22.70;99.90
20459;DHT22;10388;52.314;7.938;2023-06-22T07:21:57;22.70;99.90
20459;DHT22;10388;52.314;7.938;2023-06-22T07:24:27;22.60;99.90
20459;DHT22;10388;52.314;7.938;2023-06-22T07:26:58;22.40;99.90
20459;DHT22;10388;52.314;7.938;2023-06-22T07:29:29;22.30;99.90
20459;DHT22;10388;52.314;7.938;2023-06-22T07:32:00;22.30;99.90
20459;DHT22;10388;52.314;7.938;2023-06-22T07:34:31;22.20;99.90
20459;DHT22;10388;52.314;7.938;2023-06-22T07:37:01;22.30;99.90
20459;DHT22;10388;52.314;7.938;2023-06-22T07:39:32;22.30;99.90
20459;DHT22;10388;52.314;7.938;2023-06-22T07:42:03;22.30;99.90
20459;DHT22;10388;52.314;7.938;2023-06-22T07:44:33;22.50;99.90
20459;DHT22;10388;52.314;7.938;2023-06-22T07:47:04;22.60;99.90
20459;DHT22;10388;52.314;7.938;2023-06-22T07:49:35;22.60;99.90
20459;DHT22;10388;52.314;7.938;2023-06-22T07:52:05;22.50;99.90
20459;DHT22;10388;52.314;7.938;2023-06-22T07:54:37;22.60;99.90
20459;DHT22;10388;52.314;7.938;2023-06-22T07:57:07;22.60;99.90
20459;DHT22;10388;52.314;7.938;2023-06-22T07:59:38;22.60;99.90
20459;DHT22;10388;52.314;7.938;2023-06-22T08:02:08;22.90;99.90
20459;DHT22;10388;52.314;7.938;2023-06-22T08:04:41;23.00;99.90
20459;DHT22;10388;52.314;7.938;2023-06-22T08:07:12;22.80;99.90
20459;DHT22;10388;52.314;7.938;2023-06-22T08:09:46;23.00;99.90
20459;DHT22;10388;52.314;7.938;2023-06-22T08:12:17;22.80;99.90
20459;DHT22;10388;52.314;7.938;2023-06-22T08:14:48;22.90;99.90
20459;DHT22;10388;52.314;7.938;2023-06-22T08:17:18;22.90;99.90
20459;DHT22;10388;52.314;7.938;2023-06-22T08:19:49;23.00;99.90
20459;DHT22;10388;52.314;7.938;2023-06-22T08:22:19;22.90;99.90
20459;DHT22;10388;52.314;7.938;2023-06-22T08:24:50;22.90;99.90
20459;DHT22;10388;52.314;7.938;2023-06-22T08:27:21;22.80;99.90
20459;DHT22;10388;52.314;7.938;2023-06-22T08:29:54;22.70;99.90
20459;DHT22;10388;52.314;7.938;2023-06-22T08:32:28;22.80;99.90
20459;DHT22;10388;52.314;7.938;2023-06-22T08:34:59;22.70;99.90
20459;DHT22;10388;52.314;7.938;2023-06-22T08:37:30;22.70;99.90
20459;DHT22;10388;52.314;7.938;2023-06-22T08:40:08;22.80;99.90
20459;DHT22;10388;52.314;7.938;2023-06-22T08:42:42;22.90;99.90
20459;DHT22;10388;52.314;7.938;2023-06-22T08:45:13;22.90;99.90
20459;DHT22;10388;52.314;7.938;2023-06-22T08:47:44;23.00;99.90
20459;DHT22;10388;52.314;7.938;2023-06-22T08:50:15;22.90;99.90
20459;DHT22;10388;52.314;7.938;2023-06-22T08:52:45;22.70;99.90
20459;DHT22;10388;52.314;7.938;2023-06-22T08:55:17;22.80;99.90
20459;DHT22;10388;52.314;7.938;2023-06-22T08:57:47;22.80;99.90
20459;DHT22;10388;52.314;7.938;2023-06-22T09:00:18;22.80;99.90
20459;DHT22;10388;52.314;7.938;2023-06-22T09:02:50;22.90;99.90
20459;DHT22;10388;52.314;7.938;2023-06-22T09:05:20;22.90;99.90
20459;DHT22;10388;52.314;7.938;2023-06-22T09:07:52;22.80;99.90
20459;DHT22;10388;52.314;7.938;2023-06-22T09:10:25;22.80;99.90
20459;DHT22;10388;52.314;7.938;2023-06-22T09:12:57;22.90;99.90
20459;DHT22;10388;52.314;7.938;2023-06-22T09:15:27;23.00;99.90
20459;DHT22;10388;52.314;7.938;2023-06-22T09:17:58;22.90;99.90
20459;DHT22;10388;52.314;7.938;2023-06-22T09:20:29;22.80;99.90
20459;DHT22;10388;52.314;7.938;2023-06-22T09:22:59;22.90;99.90
20459;DHT22;10388;52.314;7.938;2023-06-22T09:25:30;23.00;99.90
20459;DHT22;10388;52.314;7.938;2023-06-22T09:28:01;23.10;99.90
20459;DHT22;10388;52.314;7.938;2023-06-22T09:30:31;23.20;99.90
20459;DHT22;10388;52.314;7.938;2023-06-22T09:33:02;23.20;99.90
20459;DHT22;10388;52.314;7.938;2023-06-22T09:35:32;23.30;99.90
20459;DHT22;10388;52.314;7.938;2023-06-22T09:38:03;23.20;99.90
20459;DHT22;10388;52.314;7.938;2023-06-22T09:40:33;23.20;99.90
20459;DHT22;10388;52.314;7.938;2023-06-22T09:43:10;23.30;99.90
20459;DHT22;10388;52.314;7.938;2023-06-22T09:45:41;23.30;99.90
20459;DHT22;10388;52.314;7.938;2023-06-22T09:48:11;23.40;99.90
20459;DHT22;10388;52.314;7.938;2023-06-22T09:50:42;23.40;99.90
20459;DHT22;10388;52.314;7.938;2023-06-22T09:53:12;23.50;99.90
20459;DHT22;10388;52.314;7.938;2023-06-22T09:55:43;23.40;99.90
20459;DHT22;10388;52.314;7.938;2023-06-22T09:58:13;23.50;99.90
20459;DHT22;10388;52.314;7.938;2023-06-22T10:00:44;23.60;99.90
20459;DHT22;10388;52.314;7.938;2023-06-22T10:03:15;23.60;99.90
20459;DHT22;10388;52.314;7.938;2023-06-22T10:05:45;23.80;99.90
20459;DHT22;10388;52.314;7.938;2023-06-22T10:08:16;23.70;99.90
20459;DHT22;10388;52.314;7.938;2023-06-22T10:10:46;23.60;99.90
20459;DHT22;10388;52.314;7.938;2023-06-22T10:13:17;23.80;99.90
20459;DHT22;10388;52.314;7.938;2023-06-22T10:15:48;23.80;99.90
20459;DHT22;10388;52.314;7.938;2023-06-22T10:18:21;23.90;99.90
20459;DHT22;10388;52.314;7.938;2023-06-22T10:20:52;24.00;99.90
20459;DHT22;10388;52.314;7.938;2023-06-22T10:23:23;24.20;99.90
20459;DHT22;10388;52.314;7.938;2023-06-22T10:25:53;24.50;99.90
20459;DHT22;10388;52.314;7.938;2023-06-22T10:28:24;24.20;99.90
20459;DHT22;10388;52.314;7.938;2023-06-22T10:30:54;24.20;99.90
20459;DHT22;10388;52.314;7.938;2023-06-22T10:33:25;24.20;99.90
20459;DHT22;10388;52.314;7.938;2023-06-22T10:35:55;24.10;99.90
20459;DHT22;10388;52.314;7.938;2023-06-22T10:38:26;24.20;99.90
20459;DHT22;10388;52.314;7.938;2023-06-22T10:40:56;24.30;99.90
20459;DHT22;10388;52.314;7.938;2023-06-22T10:43:27;24.50;99.90
20459;DHT22;10388;52.314;7.938;2023-06-22T10:45:57;24.70;99.90
20459;DHT22;10388;52.314;7.938;2023-06-22T10:48:28;24.80;99.90
20459;DHT22;10388;52.314;7.938;2023-06-22T10:50:59;24.60;99.90
20459;DHT22;10388;52.314;7.938;2023-06-22T10:53:29;24.50;99.90
20459;DHT22;10388;52.314;7.938;2023-06-22T10:56:00;24.60;99.90
20459;DHT22;10388;52.314;7.938;2023-06-22T10:58:30;24.80;99.90
20459;DHT22;10388;52.314;7.938;2023-06-22T11:01:01;24.90;99.90
20459;DHT22;10388;52.314;7.938;2023-06-22T11:03:33;24.90;99.90
20459;DHT22;10388;52.314;7.938;2023-06-22T11:06:03;24.80;99.90
20459;DHT22;10388;52.314;7.938;2023-06-22T11:08:34;24.80;99.90
20459;DHT22;10388;52.314;7.938;2023-06-22T11:11:04;24.80;99.90
20459;DHT22;10388;52.314;7.938;2023-06-22T11:13:35;24.60;99.90
20459;DHT22;10388;52.314;7.938;2023-06-22T11:16:05;24.70;99.90
20459;DHT22;10388;52.314;7.938;2023-06-22T11:18:36;24.70;99.90
20459;DHT22;10388;52.314;7.938;2023-06-22T11:21:06;24.60;99.90
20459;DHT22;10388;52.314;7.938;2023-06-22T11:23:37;24.80;99.90
20459;DHT22;10388;52.314;7.938;2023-06-22T11:26:07;25.00;99.90
20459;DHT22;10388;52.314;7.938;2023-06-22T11:28:38;25.00;99.90
20459;DHT22;10388;52.314;7.938;2023-06-22T11:31:08;24.90;99.90
20459;DHT22;10388;52.314;7.938;2023-06-22T11:33:39;24.80;99.90
20459;DHT22;10388;52.314;7.938;2023-06-22T11:36:10;24.70;99.90
20459;DHT22;10388;52.314;7.938;2023-06-22T11:38:42;24.80;99.90
20459;DHT22;10388;52.314;7.938;2023-06-22T11:41:12;24.80;99.90
20459;DHT22;10388;52.314;7.938;2023-06-22T11:43:45;24.90;99.90
20459;DHT22;10388;52.314;7.938;2023-06-22T11:46:15;24.90;99.90
20459;DHT22;10388;52.314;7.938;2023-06-22T11:48:46;25.00;99.90
20459;DHT22;10388;52.314;7.938;2023-06-22T11:51:16;25.00;99.90
20459;DHT22;10388;52.314;7.938;2023-06-22T11:53:47;25.00;99.90
20459;DHT22;10388;52.314;7.938;2023-06-22T11:56:17;25.10;99.90
20459;DHT22;10388;52.314;7.938;2023-06-22T11:58:48;25.20;99.90
20459;DHT22;10388;52.314;7.938;2023-06-22T12:01:19;25.20;99.90
20459;DHT22;10388;52.314;7.938;2023-06-22T12:03:49;25.30;99.90
20459;DHT22;10388;52.314;7.938;2023-06-22T12:06:20;25.50;99.90
20459;DHT22;10388;52.314;7.938;2023-06-22T12:08:50;25.50;99.90
20459;DHT22;10388;52.314;7.938;2023-06-22T12:11:21;25.60;99.90
20459;DHT22;10388;52.314;7.938;2023-06-22T12:13:51;25.70;99.90
20459;DHT22;10388;52.314;7.938;2023-06-22T12:16:22;25.60;99.90
20459;DHT22;10388;52.314;7.938;2023-06-22T12:18:52;25.80;99.90
20459;DHT22;10388;52.314;7.938;2023-06-22T12:21:24;25.70;99.90
20459;DHT22;10388;52.314;7.938;2023-06-22T12:23:54;25.80;99.90
20459;DHT22;10388;52.314;7.938;2023-06-22T12:26:25;26.00;99.90
20459;DHT22;10388;52.314;7.938;2023-06-22T12:28:55;25.80;99.90
20459;DHT22;10388;52.314;7.938;2023-06-22T12:31:26;25.90;99.90
20459;DHT22;10388;52.314;7.938;2023-06-22T12:33:56;25.90;99.90
20459;DHT22;10388;52.314;7.938;2023-06-22T12:36:27;25.90;99.90
20459;DHT22;10388;52.314;7.938;2023-06-22T12:38:57;25.80;99.90
20459;DHT22;10388;52.314;7.938;2023-06-22T12:41:28;25.80;99.90
20459;DHT22;10388;52.314;7.938;2023-06-22T12:43:59;25.80;99.90
20459;DHT22;10388;52.314;7.938;2023-06-22T12:46:29;25.80;99.90
20459;DHT22;10388;52.314;7.938;2023-06-22T12:49:06;25.80;99.90
20459;DHT22;10388;52.314;7.938;2023-06-22T12:51:40;25.70;99.90
20459;DHT22;10388;52.314;7.938;2023-06-22T12:54:11;25.60;99.90
20459;DHT22;10388;52.314;7.938;2023-06-22T12:56:42;25.60;99.90
20459;DHT22;10388;52.314;7.938;2023-06-22T12:59:15;25.60;99.90
20459;DHT22;10388;52.314;7.938;2023-06-22T13:01:47;25.50;99.90
20459;DHT22;10388;52.314;7.938;2023-06-22T13:04:18;25.40;99.90
20459;DHT22;10388;52.314;7.938;2023-06-22T13:06:49;25.40;99.90
20459;DHT22;10388;52.314;7.938;2023-06-22T13:09:19;25.40;99.90
20459;DHT22;10388;52.314;7.938;2023-06-22T13:11:50;25.40;99.90
20459;DHT22;10388;52.314;7.938;2023-06-22T13:14:21;25.30;99.90
20459;DHT22;10388;52.314;7.938;2023-06-22T13:16:51;25.20;99.90
20459;DHT22;10388;52.314;7.938;2023-06-22T13:19:22;25.20;99.90
20459;DHT22;10388;52.314;7.938;2023-06-22T13:21:52;25.20;99.90
20459;DHT22;10388;52.314;7.938;2023-06-22T13:24:23;25.10;99.90
20459;DHT22;10388;52.314;7.938;2023-06-22T13:26:53;25.10;99.90
20459;DHT22;10388;52.314;7.938;2023-06-22T13:29:25;25.10;99.90
20459;DHT22;10388;52.314;7.938;2023-06-22T13:31:55;25.00;99.90
20459;DHT22;10388;52.314;7.938;2023-06-22T13:34:27;25.00;99.90
20459;DHT22;10388;52.314;7.938;2023-06-22T13:36:57;25.00;99.90
20459;DHT22;10388;52.314;7.938;2023-06-22T13:39:28;24.90;99.90
20459;DHT22;10388;52.314;7.938;2023-06-22T13:41:59;24.90;99.90
20459;DHT22;10388;52.314;7.938;2023-06-22T13:44:29;24.80;99.90
20459;DHT22;10388;52.314;7.938;2023-06-22T13:47:00;24.70;99.90
20459;DHT22;10388;52.314;7.938;2023-06-22T13:49:30;24.60;99.90
20459;DHT22;10388;52.314;7.938;2023-06-22T13:52:01;24.50;99.90
20459;DHT22;10388;52.314;7.938;2023-06-22T13:54:33;24.40;99.90
20459;DHT22;10388;52.314;7.938;2023-06-22T13:57:04;24.30;99.90
20459;DHT22;10388;52.314;7.938;2023-06-22T13:59:35;24.20;99.90
20459;DHT22;10388;52.314;7.938;2023-06-22T14:02:06;24.20;99.90
20459;DHT22;10388;52.314;7.938;2023-06-22T14:04:36;24.10;99.90
20459;DHT22;10388;52.314;7.938;2023-06-22T14:07:07;23.90;99.90
20459;DHT22;10388;52.314;7.938;2023-06-22T14:09:37;23.70;99.90
20459;DHT22;10388;52.314;7.938;2023-06-22T14:12:08;23.60;99.90
20459;DHT22;10388;52.314;7.938;2023-06-22T14:14:39;23.40;99.90
20459;DHT22;10388;52.314;7.938;2023-06-22T14:17:10;23.30;99.90
20459;DHT22;10388;52.314;7.938;2023-06-22T14:19:40;23.00;99.90
20459;DHT22;10388;52.314;7.938;2023-06-22T14:22:11;22.80;99.90
20459;DHT22;10388;52.314;7.938;2023-06-22T14:24:41;22.90;99.90
20459;DHT22;10388;52.314;7.938;2023-06-22T14:27:12;23.00;99.90
20459;DHT22;10388;52.314;7.938;2023-06-22T14:29:43;23.00;99.90
20459;DHT22;10388;52.314;7.938;2023-06-22T14:32:13;23.10;99.90
20459;DHT22;10388;52.314;7.938;2023-06-22T14:34:44;23.00;99.90
20459;DHT22;10388;52.314;7.938;2023-06-22T14:37:14;23.00;99.90
20459;DHT22;10388;52.314;7.938;2023-06-22T14:39:45;23.10;99.90
20459;DHT22;10388;52.314;7.938;2023-06-22T14:42:15;22.80;99.90
20459;DHT22;10388;52.314;7.938;2023-06-22T14:44:46;22.90;99.90
20459;DHT22;10388;52.314;7.938;2023-06-22T14:47:16;23.00;99.90
20459;DHT22;10388;52.314;7.938;2023-06-22T14:49:48;23.00;99.90
20459;DHT22;10388;52.314;7.938;2023-06-22T14:52:19;22.60;99.90
20459;DHT22;10388;52.314;7.938;2023-06-22T14:54:49;22.30;99.90
20459;DHT22;10388;52.314;7.938;2023-06-22T14:57:22;22.20;99.90
20459;DHT22;10388;52.314;7.938;2023-06-22T14:59:53;22.30;99.90
20459;DHT22;10388;52.314;7.938;2023-06-22T15:02:24;22.40;99.90
20459;DHT22;10388;52.314;7.938;2023-06-22T15:04:54;22.60;99.90
20459;DHT22;10388;52.314;7.938;2023-06-22T15:07:25;22.60;99.90
20459;DHT22;10388;52.314;7.938;2023-06-22T15:09:55;22.60;99.90
20459;DHT22;10388;52.314;7.938;2023-06-22T15:12:26;22.60;99.90
20459;DHT22;10388;52.314;7.938;2023-06-22T15:14:56;22.60;99.90
20459;DHT22;10388;52.314;7.938;2023-06-22T15:17:27;22.50;99.90
20459;DHT22;10388;52.314;7.938;2023-06-22T15:19:59;22.30;99.90
20459;DHT22;10388;52.314;7.938;2023-06-22T15:22:30;22.20;99.90
20459;DHT22;10388;52.314;7.938;2023-06-22T15:25:01;22.20;99.90
20459;DHT22;10388;52.314;7.938;2023-06-22T15:27:33;22.30;99.90
20459;DHT22;10388;52.314;7.938;2023-06-22T15:30:04;22.30;99.90
20459;DHT22;10388;52.314;7.938;2023-06-22T15:32:35;22.40;99.90
20459;DHT22;10388;52.314;7.938;2023-06-22T15:35:06;22.40;99.90
20459;DHT22;10388;52.314;7.938;2023-06-22T15:37:36;22.10;99.90
20459;DHT22;10388;52.314;7.938;2023-06-22T15:40:07;22.20;99.90
20459;DHT22;10388;52.314;7.938;2023-06-22T15:42:38;22.10;99.90
20459;DHT22;10388;52.314;7.938;2023-06-22T15:45:09;22.00;99.90
20459;DHT22;10388;52.314;7.938;2023-06-22T15:47:40;21.90;99.90
20459;DHT22;10388;52.314;7.938;2023-06-22T15:50:10;21.90;99.90
20459;DHT22;10388;52.314;7.938;2023-06-22T15:52:41;21.70;99.90
20459;DHT22;10388;52.314;7.938;2023-06-22T15:55:11;21.80;99.90
20459;DHT22;10388;52.314;7.938;2023-06-22T15:57:42;21.80;99.90
20459;DHT22;10388;52.314;7.938;2023-06-22T16:00:17;21.80;99.90
20459;DHT22;10388;52.314;7.938;2023-06-22T16:02:48;21.70;99.90
20459;DHT22;10388;52.314;7.938;2023-06-22T16:05:18;21.70;99.90
20459;DHT22;10388;52.314;7.938;2023-06-22T16:07:49;21.50;99.90
20459;DHT22;10388;52.314;7.938;2023-06-22T16:10:19;21.30;99.90
20459;DHT22;10388;52.314;7.938;2023-06-22T16:12:50;21.20;99.90
20459;DHT22;10388;52.314;7.938;2023-06-22T16:15:21;21.20;99.90
20459;DHT22;10388;52.314;7.938;2023-06-22T16:17:51;21.10;99.90
20459;DHT22;10388;52.314;7.938;2023-06-22T16:20:22;21.10;99.90
20459;DHT22;10388;52.314;7.938;2023-06-22T16:22:53;21.00;99.90
20459;DHT22;10388;52.314;7.938;2023-06-22T16:25:23;21.00;99.90
20459;DHT22;10388;52.314;7.938;2023-06-22T16:27:54;21.00;99.90
20459;DHT22;10388;52.314;7.938;2023-06-22T16:30:24;20.90;99.90
20459;DHT22;10388;52.314;7.938;2023-06-22T16:32:56;20.80;99.90
20459;DHT22;10388;52.314;7.938;2023-06-22T16:35:29;20.80;99.90
20459;DHT22;10388;52.314;7.938;2023-06-22T16:38:00;20.80;99.90
20459;DHT22;10388;52.314;7.938;2023-06-22T16:40:30;20.80;99.90
20459;DHT22;10388;52.314;7.938;2023-06-22T16:43:01;20.70;99.90
20459;DHT22;10388;52.314;7.938;2023-06-22T16:45:31;20.70;99.90
20459;DHT22;10388;52.314;7.938;2023-06-22T16:48:04;20.80;99.90
20459;DHT22;10388;52.314;7.938;2023-06-22T16:50:35;20.70;99.90
20459;DHT22;10388;52.314;7.938;2023-06-22T16:53:05;20.70;99.90
20459;DHT22;10388;52.314;7.938;2023-06-22T16:55:36;20.60;99.90
20459;DHT22;10388;52.314;7.938;2023-06-22T16:58:09;20.60;99.90
20459;DHT22;10388;52.314;7.938;2023-06-22T17:00:45;20.60;99.90
20459;DHT22;10388;52.314;7.938;2023-06-22T17:03:20;20.60;99.90
20459;DHT22;10388;52.314;7.938;2023-06-22T17:05:58;20.50;99.90
20459;DHT22;10388;52.314;7.938;2023-06-22T17:08:29;20.50;99.90
20459;DHT22;10388;52.314;7.938;2023-06-22T17:11:03;20.60;99.90
20459;DHT22;10388;52.314;7.938;2023-06-22T17:13:37;20.60;99.90
20459;DHT22;10388;52.314;7.938;2023-06-22T17:16:09;20.60;99.90
20459;DHT22;10388;52.314;7.938;2023-06-22T17:18:40;20.50;99.90
20459;DHT22;10388;52.314;7.938;2023-06-22T17:21:11;20.50;99.90
20459;DHT22;10388;52.314;7.938;2023-06-22T17:23:43;20.50;99.90
20459;DHT22;10388;52.314;7.938;2023-06-22T17:26:15;20.50;99.90
20459;DHT22;10388;52.314;7.938;2023-06-22T17:28:50;20.50;99.90
20459;DHT22;10388;52.314;7.938;2023-06-22T17:31:21;20.40;99.90
20459;DHT22;10388;52.314;7.938;2023-06-22T17:33:54;20.40;99.90
20459;DHT22;10388;52.314;7.938;2023-06-22T17:36:25;20.40;99.90
20459;DHT22;10388;52.314;7.938;2023-06-22T17:38:59;20.40;99.90
20459;DHT22;10388;52.314;7.938;2023-06-22T17:41:33;20.30;99.90
20459;DHT22;10388;52.314;7.938;2023-06-22T17:44:07;20.30;99.90
20459;DHT22;10388;52.314;7.938;2023-06-22T17:46:38;20.30;99.90
20459;DHT22;10388;52.314;7.938;2023-06-22T17:49:10;20.30;99.90
20459;DHT22;10388;52.314;7.938;2023-06-22T17:51:42;20.30;99.90
20459;DHT22;10388;52.314;7.938;2023-06-22T17:54:12;20.30;99.90
20459;DHT22;10388;52.314;7.938;2023-06-22T17:56:50;20.20;99.90
20459;DHT22;10388;52.314;7.938;2023-06-22T17:59:21;20.20;99.90
20459;DHT22;10388;52.314;7.938;2023-06-22T18:01:51;20.10;99.90
20459;DHT22;10388;52.314;7.938;2023-06-22T18:04:22;20.00;99.90
20459;DHT22;10388;52.314;7.938;2023-06-22T18:06:53;19.90;99.90
20459;DHT22;10388;52.314;7.938;2023-06-22T18:09:24;19.90;99.90
20459;DHT22;10388;52.314;7.938;2023-06-22T18:11:59;19.70;99.90
20459;DHT22;10388;52.314;7.938;2023-06-22T18:14:32;19.70;99.90
20459;DHT22;10388;52.314;7.938;2023-06-22T18:17:04;19.70;99.90
20459;DHT22;10388;52.314;7.938;2023-06-22T18:19:37;19.60;99.90
20459;DHT22;10388;52.314;7.938;2023-06-22T18:22:07;19.70;99.90
20459;DHT22;10388;52.314;7.938;2023-06-22T18:24:39;19.70;99.90
20459;DHT22;10388;52.314;7.938;2023-06-22T18:27:14;19.70;99.90
20459;DHT22;10388;52.314;7.938;2023-06-22T18:29:48;19.60;99.90
20459;DHT22;10388;52.314;7.938;2023-06-22T18:32:20;19.60;99.90
20459;DHT22;10388;52.314;7.938;2023-06-22T18:34:50;19.60;99.90
20459;DHT22;10388;52.314;7.938;2023-06-22T18:37:22;19.60;99.90
20459;DHT22;10388;52.314;7.938;2023-06-22T18:39:54;19.60;99.90
20459;DHT22;10388;52.314;7.938;2023-06-22T18:42:28;19.60;99.90
20459;DHT22;10388;52.314;7.938;2023-06-22T18:44:59;19.70;99.90
20459;DHT22;10388;52.314;7.938;2023-06-22T18:47:31;19.60;99.90
20459;DHT22;10388;52.314;7.938;2023-06-22T18:50:06;19.60;99.90
20459;DHT22;10388;52.314;7.938;2023-06-22T18:52:38;19.60;99.90
20459;DHT22;10388;52.314;7.938;2023-06-22T18:55:11;19.60;99.90